createdAt,value
2022-08-25T00:01:58.850Z,69.20
2022-08-25T00:04:27.303Z,69.30
2022-08-25T00:07:02.118Z,69.20
2022-08-25T00:09:31.651Z,68.90
2022-08-25T00:12:00.197Z,68.80
2022-08-25T00:14:31.811Z,68.80
2022-08-25T00:16:59.958Z,68.90
2022-08-25T00:19:29.372Z,68.90
2022-08-25T00:21:59.129Z,69.00
2022-08-25T00:24:27.575Z,68.90
2022-08-25T00:26:57.215Z,69.00
2022-08-25T00:29:26.611Z,69.10
2022-08-25T00:31:55.025Z,69.10
2022-08-25T00:34:28.540Z,69.00
2022-08-25T00:36:58.612Z,68.90
2022-08-25T00:39:28.022Z,69.60
2022-08-25T00:41:58.239Z,73.80
2022-08-25T00:44:28.353Z,76.40
2022-08-25T00:47:00.707Z,77.30
2022-08-25T00:49:34.908Z,77.40
2022-08-25T00:52:10.392Z,73.20
2022-08-25T00:54:42.092Z,71.00
2022-08-25T00:57:14.051Z,70.10
2022-08-25T00:59:43.002Z,69.80
2022-08-25T01:02:13.813Z,69.80
2022-08-25T01:04:48.906Z,69.80
2022-08-25T01:07:21.105Z,69.80
2022-08-25T01:09:51.087Z,69.80
2022-08-25T01:12:19.548Z,70.00
2022-08-25T01:14:49.007Z,69.60
2022-08-25T01:17:17.375Z,70.00
2022-08-25T01:19:47.720Z,70.50
2022-08-25T01:22:17.440Z,70.30
2022-08-25T01:24:57.297Z,70.40
2022-08-25T01:27:25.642Z,70.40
2022-08-25T01:29:57.927Z,70.10
2022-08-25T01:32:26.684Z,70.00
2022-08-25T01:34:55.091Z,70.20
2022-08-25T01:37:24.769Z,70.20
2022-08-25T01:39:53.135Z,70.30
2022-08-25T01:42:34.056Z,70.20
2022-08-25T01:45:02.507Z,70.40
2022-08-25T01:47:32.061Z,70.20
2022-08-25T01:50:00.306Z,70.30
2022-08-25T01:52:35.122Z,71.00
2022-08-25T01:55:03.190Z,70.50
2022-08-25T01:57:32.010Z,70.60
2022-08-25T02:00:01.781Z,70.00
2022-08-25T02:02:40.274Z,70.20
2022-08-25T02:05:11.620Z,70.20
2022-08-25T02:07:42.412Z,70.20
2022-08-25T02:10:12.495Z,70.20
2022-08-25T02:12:41.161Z,70.20
2022-08-25T02:15:10.661Z,70.30
2022-08-25T02:17:40.200Z,70.30
2022-08-25T02:20:09.656Z,70.80
2022-08-25T02:22:38.177Z,71.30
2022-08-25T02:25:10.781Z,71.60
2022-08-25T02:27:39.201Z,72.20
2022-08-25T02:30:08.379Z,72.60
2022-08-25T02:32:37.175Z,72.80
2022-08-25T02:35:06.272Z,73.20
2022-08-25T02:37:35.139Z,73.40
2022-08-25T02:40:04.592Z,73.20
2022-08-25T02:42:34.520Z,73.00
2022-08-25T02:45:03.352Z,73.80
2022-08-25T02:47:33.836Z,74.20
2022-08-25T02:50:05.431Z,74.50
2022-08-25T02:52:36.403Z,74.90
2022-08-25T02:55:12.546Z,75.20
2022-08-25T02:57:43.329Z,75.30
2022-08-25T03:00:13.566Z,75.50
2022-08-25T03:02:42.617Z,75.60
2022-08-25T03:05:14.365Z,75.50
2022-08-25T03:07:43.854Z,75.50
2022-08-25T03:10:16.718Z,75.50
2022-08-25T03:12:46.851Z,75.40
2022-08-25T03:15:17.988Z,75.40
2022-08-25T03:17:49.392Z,75.20
2022-08-25T03:20:19.615Z,75.20
2022-08-25T03:22:48.963Z,75.20
2022-08-25T03:25:35.035Z,75.40
2022-08-25T03:28:05.742Z,75.50
2022-08-25T03:30:34.325Z,75.50
2022-08-25T03:33:02.931Z,75.50
2022-08-25T03:35:31.417Z,75.60
2022-08-25T03:38:01.178Z,75.50
2022-08-25T03:40:32.816Z,75.60
2022-08-25T03:43:01.914Z,75.50
2022-08-25T03:45:32.054Z,75.70
2022-08-25T03:48:00.618Z,75.70
2022-08-25T03:50:29.675Z,75.80
2022-08-25T03:52:59.388Z,75.80
2022-08-25T03:55:28.130Z,75.70
2022-08-25T03:57:58.192Z,75.80
2022-08-25T04:00:26.563Z,75.90
2022-08-25T04:02:56.338Z,75.80
2022-08-25T04:05:24.611Z,75.70
2022-08-25T04:07:55.938Z,75.80
2022-08-25T04:10:26.759Z,75.80
2022-08-25T04:12:56.147Z,75.80
2022-08-25T04:15:28.715Z,75.80
2022-08-25T04:17:59.952Z,75.80
2022-08-25T04:20:30.613Z,75.80
2022-08-25T04:23:01.269Z,75.70
2022-08-25T04:25:29.897Z,75.60
2022-08-25T04:27:58.397Z,75.60
2022-08-25T04:30:26.925Z,75.70
2022-08-25T04:32:55.189Z,75.90
2022-08-25T04:35:24.970Z,75.80
2022-08-25T04:37:53.356Z,76.00
2022-08-25T04:40:28.765Z,76.00
2022-08-25T04:42:57.601Z,75.90
2022-08-25T04:45:26.076Z,75.90
2022-08-25T04:47:55.282Z,75.90
2022-08-25T04:50:25.629Z,76.00
2022-08-25T04:52:53.926Z,76.00
2022-08-25T04:55:22.848Z,75.80
2022-08-25T04:57:53.493Z,80.10
2022-08-25T05:00:24.446Z,78.20
2022-08-25T05:02:55.598Z,76.70
2022-08-25T05:05:25.344Z,76.00
2022-08-25T05:07:54.317Z,75.60
2022-08-25T05:10:22.497Z,75.60
2022-08-25T05:12:51.165Z,75.10
2022-08-25T05:15:37.624Z,74.70
2022-08-25T05:18:06.755Z,74.60
2022-08-25T05:20:39.208Z,74.70
2022-08-25T05:23:07.392Z,74.70
2022-08-25T05:25:38.916Z,74.70
2022-08-25T05:28:07.932Z,74.80
2022-08-25T05:30:38.167Z,74.70
2022-08-25T05:33:06.688Z,74.50
2022-08-25T05:35:35.310Z,74.30
2022-08-25T05:38:05.307Z,74.40
2022-08-25T05:40:33.793Z,74.30
2022-08-25T05:43:03.681Z,74.30
2022-08-25T05:45:32.307Z,74.90
2022-08-25T05:48:01.075Z,74.20
2022-08-25T05:50:29.793Z,74.00
2022-08-25T05:53:00.669Z,74.80
2022-08-25T05:55:30.501Z,75.10
2022-08-25T05:57:59.431Z,75.30
2022-08-25T06:00:30.878Z,75.30
2022-08-25T06:02:58.223Z,75.40
2022-08-25T06:05:26.494Z,75.80
2022-08-25T06:07:54.912Z,75.80
2022-08-25T06:10:23.908Z,75.90
2022-08-25T06:12:54.039Z,75.90
2022-08-25T06:15:26.304Z,75.80
2022-08-25T06:18:01.730Z,75.70
2022-08-25T06:20:32.774Z,75.60
2022-08-25T06:23:01.416Z,75.50
2022-08-25T06:25:32.777Z,75.40
2022-08-25T06:28:02.792Z,79.20
2022-08-25T06:30:31.686Z,81.40
2022-08-25T06:33:00.064Z,82.10
2022-08-25T06:35:30.888Z,82.00
2022-08-25T06:38:00.855Z,81.90
2022-08-25T06:40:29.248Z,78.00
2022-08-25T06:42:57.640Z,75.80
2022-08-25T06:45:27.710Z,75.10
2022-08-25T06:47:59.374Z,74.60
2022-08-25T06:50:28.196Z,74.20
2022-08-25T06:52:57.000Z,74.00
2022-08-25T06:55:25.415Z,73.90
2022-08-25T06:57:56.436Z,74.00
2022-08-25T07:00:30.632Z,74.10
2022-08-25T07:03:01.503Z,74.00
2022-08-25T07:05:45.444Z,73.80
2022-08-25T07:08:13.978Z,73.80
2022-08-25T07:10:46.920Z,77.80
2022-08-25T07:13:16.606Z,75.10
2022-08-25T07:15:46.492Z,73.50
2022-08-25T07:18:15.720Z,72.60
2022-08-25T07:20:44.638Z,72.30
2022-08-25T07:23:13.211Z,72.00
2022-08-25T07:25:43.924Z,72.00
2022-08-25T07:28:12.622Z,72.00
2022-08-25T07:30:43.052Z,71.50
2022-08-25T07:33:13.458Z,71.30
2022-08-25T07:35:43.693Z,71.40
2022-08-25T07:38:15.538Z,71.40
2022-08-25T07:40:57.092Z,74.70
2022-08-25T07:43:25.380Z,72.60
2022-08-25T07:45:54.337Z,70.90
2022-08-25T07:48:24.273Z,70.20
2022-08-25T07:50:52.414Z,70.10
2022-08-25T07:53:20.635Z,70.00
2022-08-25T07:55:50.829Z,69.90
2022-08-25T07:58:22.094Z,69.70
2022-08-25T08:00:53.149Z,69.30
2022-08-25T08:03:44.592Z,69.10
2022-08-25T08:06:15.098Z,68.80
2022-08-25T08:08:45.732Z,68.40
2022-08-25T08:11:15.961Z,68.20
2022-08-25T08:13:44.218Z,68.10
2022-08-25T08:16:13.209Z,68.10
2022-08-25T08:18:44.099Z,67.60
2022-08-25T08:21:13.829Z,68.00
2022-08-25T08:23:58.693Z,68.30
2022-08-25T08:26:48.146Z,68.30
2022-08-25T08:29:16.784Z,68.10
2022-08-25T08:31:48.758Z,68.00
2022-08-25T08:34:18.953Z,68.90
2022-08-25T08:36:47.284Z,67.40
2022-08-25T08:39:15.685Z,66.60
2022-08-25T08:42:18.887Z,66.30
2022-08-25T08:45:09.881Z,65.30
2022-08-25T08:47:53.154Z,68.30
2022-08-25T08:50:33.261Z,67.80
2022-08-25T08:53:03.901Z,65.90
2022-08-25T08:55:37.020Z,62.90
2022-08-25T08:58:10.658Z,60.50
2022-08-25T09:00:41.216Z,60.00
2022-08-25T09:03:28.982Z,58.60
2022-08-25T09:06:00.557Z,58.90
2022-08-25T09:08:28.731Z,58.60
2022-08-25T09:11:00.965Z,58.60
2022-08-25T09:13:43.714Z,58.20
2022-08-25T09:16:34.896Z,57.10
2022-08-25T09:19:09.519Z,57.20
2022-08-25T09:21:43.274Z,55.50
2022-08-25T09:24:21.441Z,55.70
2022-08-25T09:26:53.164Z,55.60
2022-08-25T09:29:23.262Z,55.00
2022-08-25T09:31:59.531Z,54.40
2022-08-25T09:34:33.754Z,54.30
2022-08-25T09:37:05.902Z,54.90
2022-08-25T09:39:37.065Z,55.30
2022-08-25T09:42:05.861Z,56.00
2022-08-25T09:44:43.539Z,56.40
2022-08-25T09:47:24.094Z,53.80
2022-08-25T09:50:00.307Z,53.80
2022-08-25T09:52:41.390Z,55.20
2022-08-25T09:55:28.837Z,55.60
2022-08-25T09:57:59.037Z,55.30
2022-08-25T10:00:30.825Z,54.60
2022-08-25T10:03:11.057Z,53.30
2022-08-25T10:06:00.177Z,53.10
2022-08-25T10:08:34.314Z,53.50
2022-08-25T10:11:08.652Z,54.70
2022-08-25T10:13:41.846Z,52.40
2022-08-25T10:16:24.071Z,51.60
2022-08-25T10:19:10.014Z,51.50
2022-08-25T10:21:40.313Z,51.60
2022-08-25T10:24:11.273Z,50.40
2022-08-25T10:26:56.051Z,51.70
2022-08-25T10:29:42.195Z,50.40
2022-08-25T10:32:17.312Z,49.20
2022-08-25T10:34:52.043Z,49.00
2022-08-25T10:37:37.009Z,49.20
2022-08-25T10:40:22.319Z,48.50
2022-08-25T10:43:03.248Z,48.70
2022-08-25T10:45:47.889Z,47.40
2022-08-25T10:48:39.141Z,47.70
2022-08-25T10:51:26.892Z,48.80
2022-08-25T10:54:07.131Z,48.60
2022-08-25T10:56:40.297Z,47.90
2022-08-25T10:59:31.710Z,46.80
2022-08-25T11:02:30.662Z,46.60
2022-08-25T11:05:04.061Z,46.80
2022-08-25T11:07:35.691Z,48.10
2022-08-25T11:10:11.364Z,48.30
2022-08-25T11:12:45.083Z,47.10
2022-08-25T11:15:16.082Z,47.30
2022-08-25T11:17:50.230Z,48.60
2022-08-25T11:20:26.986Z,48.10
2022-08-25T11:23:09.237Z,48.60
2022-08-25T11:25:43.859Z,48.50
2022-08-25T11:28:19.526Z,48.40
2022-08-25T11:30:52.531Z,48.00
2022-08-25T11:33:21.633Z,47.40
2022-08-25T11:35:54.744Z,47.90
2022-08-25T11:38:41.694Z,48.30
2022-08-25T11:41:22.936Z,47.40
2022-08-25T11:44:16.292Z,47.10
2022-08-25T11:47:05.619Z,47.40
2022-08-25T11:49:53.879Z,48.40
2022-08-25T11:52:51.256Z,48.60
2022-08-25T11:55:23.377Z,48.60
2022-08-25T11:58:25.521Z,47.20
2022-08-25T12:00:56.655Z,46.90
2022-08-25T12:04:13.408Z,46.80
2022-08-25T12:07:24.958Z,46.50
2022-08-25T12:10:20.965Z,47.90
2022-08-25T12:13:00.191Z,46.70
2022-08-25T12:15:33.503Z,45.90
2022-08-25T12:18:15.415Z,46.00
2022-08-25T12:21:13.084Z,45.30
2022-08-25T12:23:45.538Z,45.50
2022-08-25T12:26:27.842Z,45.80
2022-08-25T12:29:08.635Z,45.80
2022-08-25T12:32:15.240Z,46.10
2022-08-25T12:35:19.127Z,45.80
2022-08-25T12:38:05.402Z,44.50
2022-08-25T12:40:39.386Z,45.40
2022-08-25T12:43:26.324Z,45.90
2022-08-25T12:46:39.517Z,46.00
2022-08-25T12:49:29.635Z,45.60
2022-08-25T12:52:02.190Z,44.40
2022-08-25T12:54:47.951Z,44.00
2022-08-25T12:57:44.345Z,44.10
2022-08-25T13:00:18.611Z,43.80
2022-08-25T13:03:31.173Z,44.20
2022-08-25T13:06:20.075Z,44.90
2022-08-25T13:09:08.487Z,44.60
2022-08-25T13:11:43.295Z,45.00
2022-08-25T13:14:19.922Z,45.00
2022-08-25T13:16:55.976Z,44.80
2022-08-25T13:19:25.617Z,44.90
2022-08-25T13:21:55.930Z,45.20
2022-08-25T13:24:27.380Z,45.50
2022-08-25T13:27:01.936Z,45.20
2022-08-25T13:29:37.685Z,45.30
2022-08-25T13:32:14.472Z,44.80
2022-08-25T13:34:44.102Z,44.30
2022-08-25T13:37:33.355Z,44.30
2022-08-25T13:40:26.408Z,44.50
2022-08-25T13:43:01.285Z,46.10
2022-08-25T13:45:40.967Z,43.40
2022-08-25T13:48:21.197Z,42.60
2022-08-25T13:50:53.204Z,43.40
2022-08-25T13:53:25.549Z,42.70
2022-08-25T13:55:57.162Z,43.10
2022-08-25T13:58:39.190Z,43.10
2022-08-25T14:01:22.596Z,43.30
2022-08-25T14:04:26.165Z,43.80
2022-08-25T14:07:08.822Z,43.90
2022-08-25T14:09:42.553Z,44.50
2022-08-25T14:15:02.962Z,44.10
2022-08-25T14:17:40.184Z,44.40
2022-08-25T14:20:25.691Z,44.50
2022-08-25T14:22:58.269Z,44.00
2022-08-25T14:25:28.190Z,43.20
2022-08-25T14:28:07.683Z,42.50
2022-08-25T14:30:43.504Z,42.30
2022-08-25T14:33:16.586Z,42.60
2022-08-25T14:35:47.662Z,42.30
2022-08-25T14:38:17.586Z,41.50
2022-08-25T14:40:46.264Z,42.00
2022-08-25T14:43:16.066Z,41.30
2022-08-25T14:45:48.869Z,40.70
2022-08-25T14:48:26.050Z,40.80
2022-08-25T14:50:59.574Z,41.50
2022-08-25T14:53:28.759Z,41.80
2022-08-25T14:55:59.029Z,42.20
2022-08-25T14:58:33.985Z,42.80
2022-08-25T15:01:06.164Z,42.70
2022-08-25T15:03:41.484Z,43.50
2022-08-25T15:06:12.458Z,43.20
2022-08-25T15:08:58.389Z,43.20
2022-08-25T15:11:27.282Z,42.80
2022-08-25T15:13:57.582Z,42.90
2022-08-25T15:16:35.279Z,44.20
2022-08-25T15:19:08.038Z,43.80
2022-08-25T15:21:37.042Z,43.50
2022-08-25T15:24:06.276Z,43.40
2022-08-25T15:26:41.237Z,43.50
2022-08-25T15:29:09.735Z,43.30
2022-08-25T15:31:42.092Z,43.10
2022-08-25T15:34:11.546Z,42.60
2022-08-25T15:36:41.513Z,42.70
2022-08-25T15:39:10.941Z,42.70
2022-08-25T15:41:39.830Z,42.90
2022-08-25T15:44:12.511Z,43.30
2022-08-25T15:46:49.482Z,43.40
2022-08-25T15:49:20.795Z,43.40
2022-08-25T15:51:52.471Z,43.10
2022-08-25T15:54:21.651Z,43.40
2022-08-25T15:56:50.022Z,43.50
2022-08-25T15:59:21.721Z,44.00
2022-08-25T16:01:53.572Z,44.10
2022-08-25T16:04:22.944Z,44.20
2022-08-25T16:06:54.420Z,44.30
2022-08-25T16:09:24.258Z,44.30
2022-08-25T16:11:56.797Z,44.10
2022-08-25T16:14:27.999Z,44.40
2022-08-25T16:16:59.901Z,44.50
2022-08-25T16:19:28.824Z,44.60
2022-08-25T16:21:57.610Z,44.50
2022-08-25T16:24:28.768Z,44.60
2022-08-25T16:27:11.447Z,44.60
2022-08-25T16:29:42.146Z,46.70
2022-08-25T16:32:13.542Z,46.50
2022-08-25T16:34:43.135Z,46.30
2022-08-25T16:37:13.517Z,46.20
2022-08-25T16:39:45.638Z,46.50
2022-08-25T16:42:14.547Z,46.50
2022-08-25T16:44:42.890Z,46.70
2022-08-25T16:47:14.266Z,47.20
2022-08-25T16:49:48.107Z,47.40
2022-08-25T16:52:34.561Z,47.40
2022-08-25T16:55:16.477Z,47.30
2022-08-25T16:57:46.060Z,47.50
2022-08-25T17:00:17.840Z,47.80
2022-08-25T17:02:48.939Z,48.40
2022-08-25T17:05:18.402Z,48.80
2022-08-25T17:08:08.791Z,48.90
2022-08-25T17:10:38.974Z,49.70
2022-08-25T17:13:08.401Z,50.40
2022-08-25T17:15:39.763Z,51.10
2022-08-25T17:18:11.185Z,51.80
2022-08-25T17:20:41.183Z,51.90
2022-08-25T17:23:12.390Z,52.30
2022-08-25T17:25:43.144Z,52.30
2022-08-25T17:28:12.891Z,52.40
2022-08-25T17:30:41.683Z,52.40
2022-08-25T17:33:11.352Z,52.20
2022-08-25T17:35:40.027Z,53.10
2022-08-25T17:38:08.722Z,53.80
2022-08-25T17:40:37.847Z,53.60
2022-08-25T17:43:09.188Z,53.50
2022-08-25T17:45:38.132Z,53.70
2022-08-25T17:48:13.327Z,53.90
2022-08-25T17:50:42.010Z,54.50
2022-08-25T17:53:10.409Z,54.50
2022-08-25T17:55:42.364Z,54.70
2022-08-25T17:58:12.705Z,55.30
2022-08-25T18:00:46.656Z,55.40
2022-08-25T18:03:17.254Z,55.80
2022-08-25T18:05:46.268Z,55.90
2022-08-25T18:08:16.137Z,56.70
2022-08-25T18:10:45.964Z,56.90
2022-08-25T18:13:14.554Z,56.60
2022-08-25T18:15:42.785Z,57.20
2022-08-25T18:18:15.113Z,57.60
2022-08-25T18:20:48.082Z,57.30
2022-08-25T18:23:16.249Z,58.20
2022-08-25T18:25:44.404Z,57.90
2022-08-25T18:28:13.175Z,57.70
2022-08-25T18:30:42.406Z,57.60
2022-08-25T18:33:10.586Z,57.80
2022-08-25T18:35:41.113Z,58.40
2022-08-25T18:38:28.516Z,58.40
2022-08-25T18:40:57.479Z,58.70
2022-08-25T18:43:29.154Z,59.40
2022-08-25T18:46:04.245Z,59.80
2022-08-25T18:48:33.124Z,59.50
2022-08-25T18:51:01.467Z,59.70
2022-08-25T18:53:37.483Z,59.80
2022-08-25T18:56:18.165Z,59.70
2022-08-25T18:58:46.639Z,60.00
2022-08-25T19:01:15.813Z,60.10
2022-08-25T19:03:44.507Z,60.00
2022-08-25T19:06:15.022Z,61.00
2022-08-25T19:08:46.486Z,60.90
2022-08-25T19:11:17.305Z,61.80
2022-08-25T19:13:50.167Z,61.80
2022-08-25T19:16:21.373Z,61.50
2022-08-25T19:18:50.541Z,61.30
2022-08-25T19:21:23.976Z,61.80
2022-08-25T19:23:53.575Z,62.10
2022-08-25T19:26:22.161Z,62.40
2022-08-25T19:28:50.692Z,62.40
2022-08-25T19:31:22.336Z,62.70
2022-08-25T19:33:51.656Z,63.10
2022-08-25T19:36:24.202Z,62.90
2022-08-25T19:39:01.565Z,62.80
2022-08-25T19:41:31.372Z,63.00
2022-08-25T19:43:59.682Z,63.70
2022-08-25T19:46:32.259Z,64.10
2022-08-25T19:49:06.855Z,64.50
2022-08-25T19:51:36.265Z,64.20
2022-08-25T19:54:06.484Z,64.40
2022-08-25T19:56:53.778Z,64.80
2022-08-25T19:59:25.430Z,64.20
2022-08-25T20:01:54.893Z,64.50
2022-08-25T20:04:24.527Z,64.80
2022-08-25T20:06:55.471Z,65.10
2022-08-25T20:09:38.951Z,64.80
2022-08-25T20:12:10.301Z,65.60
2022-08-25T20:14:39.286Z,65.60
2022-08-25T20:17:14.390Z,65.20
2022-08-25T20:19:54.304Z,65.30
2022-08-25T20:22:26.322Z,65.60
2022-08-25T20:24:57.884Z,65.50
2022-08-25T20:27:31.772Z,65.50
2022-08-25T20:30:02.585Z,65.60
2022-08-25T20:32:32.759Z,65.70
2022-08-25T20:35:01.107Z,66.00
2022-08-25T20:37:33.709Z,66.20
2022-08-25T20:40:03.985Z,65.80
2022-08-25T20:42:32.540Z,65.60
2022-08-25T20:45:00.935Z,66.00
2022-08-25T20:47:29.988Z,66.30
2022-08-25T20:49:59.086Z,65.90
2022-08-25T20:52:29.444Z,65.90
2022-08-25T20:54:58.371Z,66.20
2022-08-25T20:57:29.996Z,66.20
2022-08-25T20:59:58.713Z,67.10
2022-08-25T21:02:27.427Z,67.40
2022-08-25T21:04:57.058Z,68.60
2022-08-25T21:07:25.425Z,68.60
2022-08-25T21:09:53.559Z,68.10
2022-08-25T21:12:21.717Z,67.30
2022-08-25T21:14:51.919Z,66.80
2022-08-25T21:17:20.932Z,67.10
2022-08-25T21:22:17.424Z,67.30
2022-08-25T21:24:46.013Z,67.50
2022-08-25T21:27:14.288Z,67.40
2022-08-25T21:29:44.735Z,67.00
2022-08-25T21:32:24.558Z,67.10
2022-08-25T21:34:53.864Z,67.30
2022-08-25T21:37:22.004Z,67.00
2022-08-25T21:39:50.204Z,67.30
2022-08-25T21:42:18.479Z,67.60
2022-08-25T21:44:46.581Z,67.70
2022-08-25T21:47:14.632Z,67.50
2022-08-25T21:49:44.874Z,67.70
2022-08-25T21:52:15.494Z,67.70
2022-08-25T21:54:45.354Z,67.70
2022-08-25T21:57:19.062Z,67.90
2022-08-25T21:59:50.338Z,67.90
2022-08-25T22:02:22.510Z,68.20
2022-08-25T22:04:53.713Z,68.10
2022-08-25T22:07:22.516Z,68.00
2022-08-25T22:09:53.228Z,68.20
2022-08-25T22:12:21.424Z,68.10
2022-08-25T22:14:49.430Z,68.10
2022-08-25T22:17:21.242Z,67.90
2022-08-25T22:19:55.668Z,67.70
2022-08-25T22:22:24.199Z,67.50
2022-08-25T22:24:54.027Z,67.90
2022-08-25T22:27:23.402Z,72.20
2022-08-25T22:29:52.946Z,74.30
2022-08-25T22:32:21.677Z,74.80
2022-08-25T22:34:49.992Z,75.00
2022-08-25T22:37:19.794Z,75.40
2022-08-25T22:39:48.368Z,75.30
2022-08-25T22:42:19.122Z,75.40
2022-08-25T22:44:55.111Z,75.20
2022-08-25T22:47:23.465Z,75.30
2022-08-25T22:49:53.279Z,75.30
2022-08-25T22:52:26.205Z,75.50
2022-08-25T22:55:02.847Z,75.30
2022-08-25T22:57:31.154Z,75.70
2022-08-25T22:59:59.908Z,75.60
2022-08-25T23:02:30.466Z,75.80
2022-08-25T23:05:02.163Z,76.40
2022-08-25T23:07:32.959Z,76.30
2022-08-25T23:10:03.197Z,76.50
2022-08-25T23:12:32.028Z,76.70
2022-08-25T23:15:01.184Z,76.70
2022-08-25T23:17:31.645Z,76.50
2022-08-25T23:19:59.889Z,76.50
2022-08-25T23:22:28.197Z,77.50
2022-08-25T23:24:57.986Z,77.00
2022-08-25T23:27:26.197Z,77.10
2022-08-25T23:29:54.831Z,77.20
2022-08-25T23:32:23.091Z,77.40
2022-08-25T23:34:56.301Z,77.50
2022-08-25T23:37:24.573Z,77.50
2022-08-25T23:39:54.914Z,77.50
2022-08-25T23:42:24.634Z,77.60
2022-08-25T23:44:53.187Z,77.50
2022-08-25T23:47:23.935Z,77.60
2022-08-25T23:49:52.126Z,77.60
2022-08-25T23:52:20.508Z,77.70
2022-08-25T23:54:48.746Z,77.70
2022-08-25T23:57:17.080Z,77.50
2022-08-25T23:59:48.830Z,77.30
